Station Historical Data
Daily Summary for November 22, 2017 Units:  English    Metric   Both
« Previous Day
Next Day »
Daily Weekly Monthly Yearly Custom
  High: Low: Average:
Temperature: 39.3 °F 25.3 °F 31.9 °F
Dew Point: 35.8 °F 17.4 °F 23.9 °F
Humidity: 91% 62% 73%
Wind Speed: 10.0mph 0.0mph 3.8mph
Wind Gust: 18.0mph - -
Wind- - WNW
Pressure: 30.25 in 29.92 in -
Precipitation: 0.00 in    
Historical Graphs
 
 
Tabular Data for November 22, 2017
Time Temperature Dew Point Pressure Wind Wind Speed Wind Gust Humidity Rainfall Rate (Hourly)
00:09 39.3 °F 35.8 °F 29.92 in WNW 2.0 mph 5.0 mph 87% 0.04 in
00:14 39.3 °F 35.8 °F 29.92 in WNW 2.0 mph 3.0 mph 87% 0.04 in
00:19 39.3 °F 35.8 °F 29.92 in WNW 1.0 mph 4.0 mph 87% 0.05 in
00:24 39.2 °F 35.7 °F 29.92 in WNW 5.0 mph 6.0 mph 87% 0.04 in
00:34 38.8 °F 35.3 °F 29.92 in WNW 5.0 mph 10.0 mph 87% 0.05 in
00:39 38.7 °F 35.2 °F 29.92 in NW 3.0 mph 7.0 mph 87% 0.04 in
00:54 38.7 °F 35.2 °F 29.92 in WNW 3.0 mph 8.0 mph 87% 0.05 in
01:09 37.8 °F 34.3 °F 29.93 in NW 5.0 mph 11.0 mph 87% 0.05 in
01:14 37.5 °F 34.3 °F 29.93 in West 6.0 mph 10.0 mph 88% 0.05 in
01:19 37.3 °F 33.8 °F 29.93 in WNW 1.0 mph 8.0 mph 87% 0.05 in
01:24 37.2 °F 34.0 °F 29.93 in NW 5.0 mph 8.0 mph 88% 0.05 in
01:29 37.2 °F 34.0 °F 29.93 in WNW 3.0 mph 7.0 mph 88% 0.06 in
01:34 37.1 °F 33.9 °F 29.93 in Calm   8.0 mph 88% 0.05 in
01:49 36.9 °F 33.7 °F 29.93 in NW 3.0 mph 7.0 mph 88% 0.05 in
02:04 36.3 °F 33.4 °F 29.94 in NW 4.0 mph 10.0 mph 89% 0.04 in
02:34 35.0 °F 32.1 °F 29.96 in NNW 1.0 mph 6.0 mph 89% 0.05 in
02:39 34.8 °F 31.9 °F 29.97 in Calm   2.0 mph 89% 0.05 in
02:54 34.6 °F 31.7 °F 29.97 in NW 1.0 mph 4.0 mph 89% 0.04 in
02:59 34.5 °F 31.6 °F 29.97 in NW 1.0 mph 4.0 mph 89% 0.04 in
03:04 34.3 °F 31.7 °F 29.97 in WNW 1.0 mph 5.0 mph 90% 0.05 in
03:09 34.3 °F 31.7 °F 29.97 in WNW 2.0 mph 6.0 mph 90% 0.04 in
03:14 34.3 °F 31.7 °F 29.97 in WNW 2.0 mph 6.0 mph 90% 0.04 in
03:19 34.3 °F 31.7 °F 29.98 in WNW 3.0 mph 4.0 mph 90% 0.04 in
03:24 34.4 °F 31.8 °F 29.97 in WNW 1.0 mph 4.0 mph 90% 0.04 in
03:29 34.3 °F 31.7 °F 29.98 in WNW 1.0 mph 4.0 mph 90% 0.04 in
03:34 34.3 °F 31.7 °F 29.98 in Calm   6.0 mph 90% 0.03 in
03:39 34.3 °F 31.7 °F 29.98 in WNW 3.0 mph 5.0 mph 90% 0.03 in
03:44 34.3 °F 31.7 °F 29.98 in Calm   3.0 mph 90% 0.02 in
03:54 34.2 °F 31.6 °F 29.99 in WNW 1.0 mph 3.0 mph 90% 0.02 in
03:59 34.3 °F 31.7 °F 29.99 in WNW 1.0 mph 4.0 mph 90% 0.02 in
04:04 34.3 °F 31.7 °F 29.99 in WNW 2.0 mph 4.0 mph 90% 0.02 in
04:09 34.3 °F 31.7 °F 29.99 in WNW 1.0 mph 4.0 mph 90% 0.02 in
04:14 34.4 °F 32.0 °F 29.99 in Calm     91% 0.02 in
04:24 34.7 °F 32.3 °F 30.00 in WNW 1.0 mph 3.0 mph 91% 0.01 in
04:29 34.8 °F 32.4 °F 30.00 in WNW 1.0 mph 3.0 mph 91% 0.01 in
04:34 34.9 °F 32.5 °F 30.00 in WNW 2.0 mph 6.0 mph 91% 0.01 in
04:39 34.8 °F 32.4 °F 30.01 in WNW 3.0 mph 7.0 mph 91% 0.01 in
04:54 34.6 °F 32.0 °F 30.01 in NW 4.0 mph 8.0 mph 90% 0.01 in
05:14 34.7 °F 31.8 °F 30.02 in Calm   5.0 mph 89% 0.00 in
05:24 34.6 °F 31.1 °F 30.03 in NW 1.0 mph 7.0 mph 87% 0.00 in
05:29 34.6 °F 30.8 °F 30.03 in WNW 2.0 mph 8.0 mph 86% 0.00 in
05:39 34.6 °F 30.3 °F 30.04 in NW 3.0 mph 10.0 mph 84% 0.00 in
05:54 34.7 °F 30.1 °F 30.04 in WNW 2.0 mph 6.0 mph 83% 0.00 in
06:04 34.6 °F 30.0 °F 30.04 in WNW 1.0 mph 5.0 mph 83% 0.00 in
06:09 34.7 °F 30.1 °F 30.04 in WNW 2.0 mph 5.0 mph 83% 0.00 in
06:14 34.6 °F 29.7 °F 30.04 in West 3.0 mph 10.0 mph 82% 0.00 in
06:19 34.6 °F 29.7 °F 30.05 in West 4.0 mph 8.0 mph 82% 0.00 in
06:29 34.6 °F 29.4 °F 30.05 in WNW 6.0 mph 8.0 mph 81% 0.00 in
06:34 34.6 °F 29.1 °F 30.05 in WNW 8.0 mph 10.0 mph 80% 0.00 in
06:39 34.4 °F 28.9 °F 30.06 in WNW 7.0 mph 12.0 mph 80% 0.00 in
06:44 34.4 °F 28.9 °F 30.06 in WNW 6.0 mph 12.0 mph 80% 0.00 in
06:49 34.4 °F 28.9 °F 30.06 in WNW 5.0 mph 12.0 mph 80% 0.00 in
06:54 34.4 °F 28.9 °F 30.06 in WNW 5.0 mph 10.0 mph 80% 0.00 in
06:59 34.4 °F 28.9 °F 30.07 in WNW 6.0 mph 10.0 mph 80% 0.00 in
07:04 34.4 °F 28.9 °F 30.07 in WNW 6.0 mph 10.0 mph 80% 0.00 in
07:09 34.4 °F 28.9 °F 30.08 in West 5.0 mph 10.0 mph 80% 0.00 in
07:14 34.3 °F 28.8 °F 30.08 in WNW 5.0 mph 12.0 mph 80% 0.00 in
07:29 34.1 °F 28.6 °F 30.09 in WNW 4.0 mph 9.0 mph 80% 0.00 in
07:34 34.0 °F 28.2 °F 30.09 in WNW 7.0 mph 10.0 mph 79% 0.00 in
07:39 34.0 °F 28.2 °F 30.09 in West 9.0 mph 9.0 mph 79% 0.00 in
07:44 34.0 °F 28.2 °F 30.10 in WNW 3.0 mph 9.0 mph 79% 0.00 in
07:49 33.9 °F 27.8 °F 30.10 in WNW 5.0 mph 12.0 mph 78% 0.00 in
07:54 33.9 °F 27.8 °F 30.10 in WNW 5.0 mph 12.0 mph 78% 0.00 in
07:59 33.9 °F 27.4 °F 30.10 in WNW 5.0 mph 11.0 mph 77% 0.00 in
08:04 34.0 °F 27.5 °F 30.10 in WNW 5.0 mph 9.0 mph 77% 0.00 in
08:09 33.9 °F 27.4 °F 30.11 in WNW 5.0 mph 9.0 mph 77% 0.00 in
08:24 34.0 °F 27.5 °F 30.12 in West 3.0 mph 8.0 mph 77% 0.00 in
08:29 34.1 °F 27.6 °F 30.12 in WNW 2.0 mph 8.0 mph 77% 0.00 in
08:34 34.1 °F 27.6 °F 30.12 in West 2.0 mph 6.0 mph 77% 0.00 in
08:39 34.1 °F 27.6 °F 30.12 in WNW 4.0 mph 8.0 mph 77% 0.00 in
08:44 34.1 °F 27.6 °F 30.12 in WNW 3.0 mph 11.0 mph 77% 0.00 in
08:49 34.2 °F 27.7 °F 30.12 in WNW 3.0 mph 11.0 mph 77% 0.00 in
08:54 34.2 °F 27.7 °F 30.12 in WNW 5.0 mph 11.0 mph 77% 0.00 in
08:59 34.1 °F 27.3 °F 30.12 in WNW 6.0 mph 11.0 mph 76% 0.00 in
09:09 34.3 °F 27.8 °F 30.13 in West 5.0 mph 11.0 mph 77% 0.00 in
09:14 34.2 °F 27.4 °F 30.13 in WNW 5.0 mph 14.0 mph 76% 0.00 in
09:19 34.2 °F 27.4 °F 30.13 in WNW 6.0 mph 14.0 mph 76% 0.00 in
09:24 34.3 °F 27.5 °F 30.13 in NW 5.0 mph 11.0 mph 76% 0.00 in
09:29 34.2 °F 27.1 °F 30.13 in NW 3.0 mph 13.0 mph 75% 0.00 in
09:39 33.9 °F 25.8 °F 30.14 in West 9.0 mph 17.0 mph 72% 0.00 in
09:44 33.6 °F 25.2 °F 30.14 in WSW 7.0 mph 18.0 mph 71% 0.00 in
10:14 33.0 °F 24.3 °F 30.15 in NW 6.0 mph 14.0 mph 70% 0.00 in
10:19 33.1 °F 24.7 °F 30.15 in WNW 6.0 mph 14.0 mph 71% 0.00 in
10:24 33.1 °F 24.7 °F 30.15 in WNW 6.0 mph 13.0 mph 71% 0.00 in
10:29 33.1 °F 24.4 °F 30.15 in WNW 6.0 mph 12.0 mph 70% 0.00 in
10:34 33.3 °F 24.6 °F 30.15 in NW 5.0 mph 10.0 mph 70% 0.00 in
10:39 33.4 °F 24.7 °F 30.15 in WNW 4.0 mph 9.0 mph 70% 0.00 in
10:44 33.5 °F 24.8 °F 30.16 in NW 8.0 mph 11.0 mph 70% 0.00 in
10:49 33.5 °F 24.4 °F 30.15 in WSW 7.0 mph 10.0 mph 69% 0.00 in
10:54 33.4 °F 24.3 °F 30.15 in WNW 5.0 mph 11.0 mph 69% 0.00 in
10:59 33.6 °F 24.9 °F 30.16 in NW 6.0 mph 10.0 mph 70% 0.00 in
11:14 33.5 °F 24.8 °F 30.16 in NW 5.0 mph 12.0 mph 70% 0.00 in
11:19 33.1 °F 24.4 °F 30.16 in NW 6.0 mph 13.0 mph 70% 0.00 in
11:24 32.5 °F 23.8 °F 30.16 in WNW 5.0 mph 13.0 mph 70% 0.00 in
11:29 32.3 °F 23.9 °F 30.16 in Calm   10.0 mph 71% 0.00 in
11:34 32.3 °F 23.9 °F 30.16 in NW 7.0 mph 10.0 mph 71% 0.00 in
11:49 32.4 °F 24.0 °F 30.16 in North 2.0 mph 11.0 mph 71% 0.00 in
11:54 32.2 °F 23.2 °F 30.16 in NNW 10.0 mph 12.0 mph 69% 0.00 in
12:04 32.2 °F 23.2 °F 30.16 in WNW 4.0 mph 9.0 mph 69% 0.00 in
12:09 32.3 °F 22.9 °F 30.16 in West 9.0 mph 10.0 mph 68% 0.00 in
12:14 32.3 °F 22.9 °F 30.16 in WNW 5.0 mph 10.0 mph 68% 0.00 in
12:19 32.2 °F 22.8 °F 30.16 in WNW 6.0 mph 12.0 mph 68% 0.00 in
12:29 32.3 °F 22.6 °F 30.16 in WNW 5.0 mph 11.0 mph 67% 0.00 in
12:44 32.3 °F 22.6 °F 30.16 in WNW 6.0 mph 14.0 mph 67% 0.00 in
12:49 32.2 °F 21.7 °F 30.16 in WNW 7.0 mph 14.0 mph 65% 0.00 in
12:54 32.3 °F 21.8 °F 30.16 in NW 3.0 mph 10.0 mph 65% 0.00 in
12:59 32.4 °F 21.9 °F 30.16 in NW 5.0 mph 10.0 mph 65% 0.00 in
13:04 32.5 °F 22.0 °F 30.16 in West 4.0 mph 11.0 mph 65% 0.00 in
13:09 32.5 °F 21.7 °F 30.16 in NNW 3.0 mph 10.0 mph 64% 0.00 in
13:14 32.2 °F 21.4 °F 30.17 in NNW 8.0 mph 12.0 mph 64% 0.00 in
13:34 32.1 °F 21.3 °F 30.17 in WNW 5.0 mph 12.0 mph 64% 0.00 in
13:39 31.9 °F 20.7 °F 30.17 in West 1.0 mph 9.0 mph 63% 0.00 in
13:44 31.8 °F 20.6 °F 30.17 in NW 6.0 mph 12.0 mph 63% 0.00 in
13:49 32.0 °F 21.2 °F 30.17 in WNW 8.0 mph 11.0 mph 64% 0.00 in
13:54 31.7 °F 20.5 °F 30.17 in WNW 6.0 mph 13.0 mph 63% 0.00 in
13:59 31.7 °F 20.2 °F 30.16 in WNW 7.0 mph 13.0 mph 62% 0.00 in
14:04 31.6 °F 20.4 °F 30.17 in West 6.0 mph 12.0 mph 63% 0.00 in
14:09 31.5 °F 20.7 °F 30.16 in West 6.0 mph 9.0 mph 64% 0.00 in
14:14 31.4 °F 20.6 °F 30.17 in WNW 8.0 mph 14.0 mph 64% 0.00 in
14:19 31.2 °F 20.4 °F 30.17 in NW 5.0 mph 13.0 mph 64% 0.00 in
14:24 31.3 °F 20.5 °F 30.17 in WNW 7.0 mph 13.0 mph 64% 0.00 in
14:29 31.2 °F 20.4 °F 30.17 in WNW 6.0 mph 13.0 mph 64% 0.00 in
14:44 31.1 °F 20.0 °F 30.18 in NW 3.0 mph 10.0 mph 63% 0.00 in
14:59 31.4 °F 20.2 °F 30.18 in WNW 4.0 mph 11.0 mph 63% 0.00 in
15:04 31.3 °F 19.8 °F 30.19 in WNW 5.0 mph 11.0 mph 62% 0.00 in
15:09 31.1 °F 19.6 °F 30.19 in NW 5.0 mph 14.0 mph 62% 0.00 in
15:14 31.1 °F 20.0 °F 30.19 in WNW 5.0 mph 14.0 mph 63% 0.00 in
15:19 31.1 °F 20.0 °F 30.19 in West 4.0 mph 12.0 mph 63% 0.00 in
15:39 30.9 °F 19.8 °F 30.21 in WNW 6.0 mph 11.0 mph 63% 0.00 in
15:44 30.8 °F 20.0 °F 30.21 in NW 2.0 mph 11.0 mph 64% 0.00 in
15:49 30.8 °F 20.0 °F 30.21 in WNW 2.0 mph 14.0 mph 64% 0.00 in
15:59 30.8 °F 20.0 °F 30.21 in NNW 7.0 mph 13.0 mph 64% 0.00 in
16:04 30.6 °F 19.5 °F 30.21 in WNW 7.0 mph 13.0 mph 63% 0.00 in
16:09 30.6 °F 19.1 °F 30.22 in WNW 7.0 mph 14.0 mph 62% 0.00 in
16:24 30.4 °F 19.3 °F 30.22 in NNW 4.0 mph 11.0 mph 63% 0.00 in
16:29 30.4 °F 19.3 °F 30.22 in West 3.0 mph 11.0 mph 63% 0.00 in
16:34 30.5 °F 19.4 °F 30.22 in WNW 4.0 mph 11.0 mph 63% 0.00 in
16:39 30.4 °F 19.3 °F 30.22 in WNW 3.0 mph 8.0 mph 63% 0.00 in
16:44 30.4 °F 18.9 °F 30.22 in NW 5.0 mph 13.0 mph 62% 0.00 in
16:49 30.3 °F 19.2 °F 30.22 in WNW 7.0 mph 11.0 mph 63% 0.00 in
16:59 30.3 °F 19.6 °F 30.23 in WNW 5.0 mph 11.0 mph 64% 0.00 in
17:04 30.3 °F 19.6 °F 30.23 in WNW 5.0 mph 11.0 mph 64% 0.00 in
17:09 30.3 °F 19.6 °F 30.23 in WNW 5.0 mph 9.0 mph 64% 0.00 in
17:14 30.3 °F 19.6 °F 30.23 in WNW 4.0 mph 9.0 mph 64% 0.00 in
17:19 30.3 °F 19.6 °F 30.23 in West 4.0 mph 10.0 mph 64% 0.00 in
17:24 30.3 °F 19.6 °F 30.23 in West 5.0 mph 10.0 mph 64% 0.00 in
17:39 30.4 °F 19.7 °F 30.24 in WNW 5.0 mph 12.0 mph 64% 0.00 in
17:44 30.3 °F 19.6 °F 30.23 in WNW 4.0 mph 11.0 mph 64% 0.00 in
17:49 30.3 °F 19.2 °F 30.24 in NW 5.0 mph 10.0 mph 63% 0.00 in
17:54 30.3 °F 19.2 °F 30.24 in West 6.0 mph 8.0 mph 63% 0.00 in
17:59 30.3 °F 19.2 °F 30.24 in WNW 6.0 mph 7.0 mph 63% 0.00 in
18:04 30.3 °F 18.8 °F 30.24 in WNW 2.0 mph 9.0 mph 62% 0.00 in
18:09 30.3 °F 19.2 °F 30.24 in WNW 4.0 mph 9.0 mph 63% 0.00 in
18:19 30.1 °F 19.0 °F 30.24 in West 4.0 mph 11.0 mph 63% 0.00 in
18:29 29.9 °F 18.5 °F 30.25 in WNW 6.0 mph 11.0 mph 62% 0.00 in
18:34 29.9 °F 18.5 °F 30.25 in WNW 5.0 mph 11.0 mph 62% 0.00 in
18:39 29.8 °F 18.4 °F 30.24 in West 5.0 mph 9.0 mph 62% 0.00 in
18:44 29.8 °F 18.4 °F 30.25 in West 5.0 mph 10.0 mph 62% 0.00 in
18:49 29.8 °F 18.4 °F 30.25 in WNW 3.0 mph 9.0 mph 62% 0.00 in
18:54 29.8 °F 18.7 °F 30.25 in WSW 4.0 mph 6.0 mph 63% 0.00 in
18:59 29.8 °F 18.7 °F 30.25 in NW 1.0 mph 10.0 mph 63% 0.00 in
19:04 29.8 °F 18.7 °F 30.25 in West 5.0 mph 10.0 mph 63% 0.00 in
19:09 29.7 °F 18.6 °F 30.25 in WNW 7.0 mph 9.0 mph 63% 0.00 in
19:14 29.8 °F 19.1 °F 30.25 in West 2.0 mph 9.0 mph 64% 0.00 in
19:19 29.7 °F 19.0 °F 30.25 in WNW 4.0 mph 9.0 mph 64% 0.00 in
19:24 29.7 °F 19.0 °F 30.25 in WNW 5.0 mph 9.0 mph 64% 0.00 in
19:29 29.6 °F 18.9 °F 30.25 in West 6.0 mph 11.0 mph 64% 0.00 in
19:34 29.5 °F 18.8 °F 30.25 in WNW 6.0 mph 12.0 mph 64% 0.00 in
19:39 29.5 °F 18.8 °F 30.25 in WNW 5.0 mph 12.0 mph 64% 0.00 in
19:44 29.5 °F 18.8 °F 30.25 in WNW 6.0 mph 11.0 mph 64% 0.00 in
19:49 29.4 °F 18.7 °F 30.25 in WNW 5.0 mph 11.0 mph 64% 0.00 in
19:59 29.4 °F 18.3 °F 30.25 in NNW 6.0 mph 10.0 mph 63% 0.00 in
20:09 29.2 °F 18.5 °F 30.25 in Calm   5.0 mph 64% 0.00 in
20:14 29.2 °F 18.5 °F 30.25 in WNW 5.0 mph 8.0 mph 64% 0.00 in
20:19 29.2 °F 18.5 °F 30.25 in WNW 4.0 mph 9.0 mph 64% 0.00 in
20:24 29.1 °F 18.1 °F 30.24 in WSW 3.0 mph 9.0 mph 63% 0.00 in
20:29 29.1 °F 18.1 °F 30.25 in WNW 4.0 mph 9.0 mph 63% 0.00 in
20:34 28.9 °F 17.9 °F 30.25 in WNW 5.0 mph 11.0 mph 63% 0.00 in
20:39 28.9 °F 18.2 °F 30.25 in WNW 5.0 mph 11.0 mph 64% 0.00 in
20:44 28.8 °F 18.1 °F 30.25 in WNW 4.0 mph 9.0 mph 64% 0.00 in
20:49 28.8 °F 18.1 °F 30.25 in West 5.0 mph 10.0 mph 64% 0.00 in
20:54 28.7 °F 18.1 °F 30.25 in NW 3.0 mph 11.0 mph 64% 0.00 in
20:59 28.7 °F 18.4 °F 30.25 in West 3.0 mph 7.0 mph 65% 0.00 in
21:04 28.7 °F 18.4 °F 30.24 in West 7.0 mph 9.0 mph 65% 0.00 in
21:09 28.5 °F 17.9 °F 30.24 in West 3.0 mph 10.0 mph 64% 0.00 in
21:14 28.3 °F 18.0 °F 30.24 in WNW 5.0 mph 7.0 mph 65% 0.00 in
21:24 27.8 °F 17.6 °F 30.24 in West 4.0 mph 6.0 mph 65% 0.00 in
21:29 27.6 °F 17.4 °F 30.24 in West 3.0 mph 8.0 mph 65% 0.00 in
21:39 27.4 °F 17.5 °F 30.24 in WNW 2.0 mph 5.0 mph 66% 0.00 in
21:44 27.4 °F 17.5 °F 30.24 in WNW 2.0 mph 6.0 mph 66% 0.00 in
21:49 27.3 °F 17.4 °F 30.23 in West 1.0 mph 5.0 mph 66% 0.00 in
21:54 27.2 °F 17.7 °F 30.23 in Calm   3.0 mph 67% 0.00 in
21:59 27.0 °F 17.5 °F 30.23 in West 1.0 mph 3.0 mph 67% 0.00 in
22:04 26.9 °F 17.4 °F 30.23 in West 2.0 mph 4.0 mph 67% 0.00 in
22:19 26.9 °F 17.7 °F 30.23 in West 1.0 mph 4.0 mph 68% 0.00 in
22:24 26.9 °F 17.7 °F 30.22 in Calm   5.0 mph 68% 0.00 in
22:29 26.9 °F 17.7 °F 30.22 in West 1.0 mph 5.0 mph 68% 0.00 in
22:34 26.7 °F 17.6 °F 30.22 in West 1.0 mph 3.0 mph 68% 0.00 in
22:39 26.7 °F 17.9 °F 30.22 in Calm   3.0 mph 69% 0.00 in
22:44 26.7 °F 17.9 °F 30.22 in Calm   3.0 mph 69% 0.00 in
22:49 26.8 °F 18.0 °F 30.22 in WSW 1.0 mph 4.0 mph 69% 0.00 in
22:54 26.7 °F 17.9 °F 30.21 in WSW 1.0 mph 4.0 mph 69% 0.00 in
22:59 26.7 °F 17.9 °F 30.21 in WSW 1.0 mph 3.0 mph 69% 0.00 in
23:04 26.6 °F 17.8 °F 30.21 in Calm   2.0 mph 69% 0.00 in
23:09 26.5 °F 17.7 °F 30.20 in Calm   1.0 mph 69% 0.00 in
23:14 26.3 °F 17.8 °F 30.21 in Calm   2.0 mph 70% 0.00 in
23:19 26.3 °F 17.8 °F 30.21 in Calm     70% 0.00 in
23:34 25.7 °F 17.9 °F 30.21 in Calm     72% 0.00 in
23:39 25.6 °F 17.8 °F 30.21 in Calm     72% 0.00 in
23:44 25.5 °F 17.7 °F 30.21 in Calm     72% 0.00 in
23:49 25.3 °F 17.9 °F 30.21 in Calm     73% 0.00 in
23:54 25.3 °F 17.9 °F 30.21 in Calm     73% 0.00 in
23:59 25.3 °F 18.2 °F 30.21 in Calm     74% 0.00 in
Buffalo, New York, USA
Compliments of Weather Underground - 2 mb